createdAt,value
2023-03-05T00:00:02.087Z,0.00
2023-03-05T00:01:02.079Z,0.00
2023-03-05T00:02:02.040Z,0.00
2023-03-05T00:03:02.045Z,0.00
2023-03-05T00:04:02.028Z,0.00
2023-03-05T00:05:02.009Z,0.00
2023-03-05T00:06:02.081Z,0.00
2023-03-05T00:07:02.033Z,0.00
2023-03-05T00:08:02.010Z,0.00
2023-03-05T00:09:01.998Z,0.00
2023-03-05T00:10:01.981Z,0.00
2023-03-05T00:11:01.987Z,0.00
2023-03-05T00:12:01.938Z,0.00
2023-03-05T00:13:01.958Z,0.00
2023-03-05T00:14:01.926Z,0.00
2023-03-05T00:15:01.911Z,0.00
2023-03-05T00:16:01.934Z,0.00
2023-03-05T00:17:01.937Z,0.00
2023-03-05T00:18:01.897Z,0.00
2023-03-05T00:19:01.878Z,0.00
2023-03-05T00:20:02.476Z,0.00
2023-03-05T00:21:01.874Z,0.00
2023-03-05T00:22:01.884Z,0.00
2023-03-05T00:23:01.832Z,0.00
2023-03-05T00:24:01.826Z,0.00
2023-03-05T00:25:01.813Z,0.00
2023-03-05T00:26:01.839Z,0.00
2023-03-05T00:27:01.815Z,0.00
2023-03-05T00:28:01.830Z,0.00
2023-03-05T00:29:01.850Z,0.00
2023-03-05T00:30:01.778Z,0.00
2023-03-05T00:31:01.856Z,0.00
2023-03-05T00:32:01.813Z,0.00
2023-03-05T00:33:01.777Z,0.00
2023-03-05T00:34:01.797Z,0.00
2023-03-05T00:35:01.762Z,0.00
2023-03-05T00:36:01.776Z,0.00
2023-03-05T00:37:01.748Z,0.00
2023-03-05T00:38:01.723Z,0.00
2023-03-05T00:39:01.678Z,0.00
2023-03-05T00:40:01.767Z,0.00
2023-03-05T00:41:01.672Z,0.00
2023-03-05T00:42:01.665Z,0.00
2023-03-05T00:43:01.696Z,0.00
2023-03-05T00:44:01.687Z,0.00
2023-03-05T00:45:01.627Z,0.00
2023-03-05T00:46:01.667Z,0.00
2023-03-05T00:47:01.629Z,0.00
2023-03-05T00:48:01.608Z,0.00
2023-03-05T00:49:01.639Z,0.00
2023-03-05T00:50:01.594Z,0.00
2023-03-05T00:51:01.597Z,0.00
2023-03-05T00:52:01.574Z,0.00
2023-03-05T00:53:01.558Z,0.00
2023-03-05T00:54:01.548Z,0.00
2023-03-05T00:55:01.542Z,0.00
2023-03-05T00:56:01.559Z,0.00
2023-03-05T00:57:01.530Z,0.00
2023-03-05T00:58:01.513Z,0.00
2023-03-05T00:59:01.486Z,0.00
2023-03-05T01:00:01.508Z,0.00
2023-03-05T01:01:01.507Z,0.00
2023-03-05T01:02:01.532Z,0.00
2023-03-05T01:03:01.449Z,0.00
2023-03-05T01:04:01.496Z,0.00
2023-03-05T01:05:01.529Z,0.00
2023-03-05T01:06:01.452Z,0.00
2023-03-05T01:07:01.460Z,0.00
2023-03-05T01:08:01.399Z,0.00
2023-03-05T01:09:01.392Z,0.00
2023-03-05T01:10:01.403Z,0.00
2023-03-05T01:11:01.368Z,0.00
2023-03-05T01:12:01.399Z,0.00
2023-03-05T01:13:01.388Z,0.00
2023-03-05T01:14:01.340Z,0.00
2023-03-05T01:15:01.377Z,0.00
2023-03-05T01:16:01.363Z,0.00
2023-03-05T01:17:01.303Z,0.00
2023-03-05T01:18:01.302Z,0.00
2023-03-05T01:19:01.276Z,0.00
2023-03-05T01:20:01.303Z,0.00
2023-03-05T01:21:01.304Z,0.00
2023-03-05T01:22:01.317Z,0.00
2023-03-05T01:23:01.265Z,0.00
2023-03-05T01:24:01.252Z,0.00
2023-03-05T01:25:01.272Z,0.00
2023-03-05T01:26:01.204Z,0.00
2023-03-05T01:27:01.217Z,0.00
2023-03-05T01:28:01.209Z,0.00
2023-03-05T01:29:01.228Z,0.00
2023-03-05T01:30:01.201Z,0.00
2023-03-05T01:31:01.169Z,0.00
2023-03-05T01:32:01.191Z,0.00
2023-03-05T01:33:01.164Z,0.00
2023-03-05T01:34:01.142Z,0.00
2023-03-05T01:35:01.130Z,0.00
2023-03-05T01:36:01.124Z,0.00
2023-03-05T01:37:01.156Z,0.00
2023-03-05T01:38:01.137Z,0.00
2023-03-05T01:39:01.090Z,0.00
2023-03-05T01:40:01.128Z,0.00
2023-03-05T01:41:01.110Z,0.00
2023-03-05T01:42:01.066Z,0.00
2023-03-05T01:43:01.076Z,0.00
2023-03-05T01:44:01.101Z,0.00
2023-03-05T01:45:01.086Z,0.00
2023-03-05T01:46:01.056Z,0.00
2023-03-05T01:47:01.065Z,0.00
2023-03-05T01:48:01.034Z,0.00
2023-03-05T01:49:00.996Z,0.00
2023-03-05T01:50:01.013Z,0.00
2023-03-05T01:51:00.996Z,0.00
2023-03-05T01:52:00.964Z,0.00
2023-03-05T01:53:00.991Z,0.00
2023-03-05T01:54:00.972Z,0.00
2023-03-05T01:55:00.940Z,0.00
2023-03-05T01:56:00.935Z,0.00
2023-03-05T01:57:00.938Z,0.00
2023-03-05T01:58:00.922Z,0.00
2023-03-05T01:59:00.896Z,0.00
2023-03-05T02:00:00.893Z,0.00
2023-03-05T02:01:00.976Z,0.00
2023-03-05T02:02:00.939Z,0.00
2023-03-05T02:03:00.869Z,0.00
2023-03-05T02:04:00.924Z,0.00
2023-03-05T02:05:00.867Z,0.00
2023-03-05T02:06:00.830Z,0.00
2023-03-05T02:07:00.832Z,0.00
2023-03-05T02:08:00.805Z,0.00
2023-03-05T02:09:00.846Z,0.00
2023-03-05T02:10:00.844Z,0.00
2023-03-05T02:11:00.782Z,0.00
2023-03-05T02:12:00.771Z,0.00
2023-03-05T02:13:00.762Z,0.00
2023-03-05T02:14:00.783Z,0.00
2023-03-05T02:15:00.752Z,0.00
2023-03-05T02:16:00.740Z,0.00
2023-03-05T02:17:00.779Z,0.00
2023-03-05T02:18:00.716Z,0.00
2023-03-05T02:19:00.761Z,0.00
2023-03-05T02:20:00.720Z,0.00
2023-03-05T02:21:00.746Z,0.00
2023-03-05T02:22:00.683Z,0.00
2023-03-05T02:23:00.666Z,0.00
2023-03-05T02:24:00.701Z,0.00
2023-03-05T02:25:00.691Z,0.00
2023-03-05T02:26:00.646Z,0.00
2023-03-05T02:27:00.629Z,0.00
2023-03-05T02:28:00.652Z,0.00
2023-03-05T02:29:00.616Z,0.00
2023-03-05T02:30:00.699Z,0.00
2023-03-05T02:31:00.616Z,0.00
2023-03-05T02:32:00.645Z,0.00
2023-03-05T02:33:00.629Z,0.00
2023-03-05T02:34:00.576Z,0.00
2023-03-05T02:35:00.572Z,0.00
2023-03-05T02:36:00.637Z,0.00
2023-03-05T02:37:00.551Z,0.00
2023-03-05T02:38:00.555Z,0.00
2023-03-05T02:39:00.565Z,0.00
2023-03-05T02:40:00.548Z,0.00
2023-03-05T02:41:00.521Z,0.00
2023-03-05T02:42:00.500Z,0.00
2023-03-05T02:43:00.506Z,0.00
2023-03-05T02:44:00.545Z,0.00
2023-03-05T02:45:00.452Z,0.00
2023-03-05T02:46:00.480Z,0.00
2023-03-05T02:47:00.501Z,0.00
2023-03-05T02:48:00.442Z,0.00
2023-03-05T02:49:00.455Z,0.00
2023-03-05T02:50:00.410Z,0.00
2023-03-05T02:51:00.401Z,0.00
2023-03-05T02:52:00.413Z,0.00
2023-03-05T02:53:00.390Z,0.00
2023-03-05T02:54:00.414Z,0.00
2023-03-05T02:55:00.379Z,0.00
2023-03-05T02:56:00.408Z,0.00
2023-03-05T02:57:00.373Z,0.00
2023-03-05T02:58:00.339Z,0.00
2023-03-05T02:59:00.360Z,0.00
2023-03-05T03:00:00.329Z,0.00
2023-03-05T03:01:00.361Z,0.00
2023-03-05T03:02:00.329Z,0.00
2023-03-05T03:03:00.326Z,0.00
2023-03-05T03:04:00.271Z,0.00
2023-03-05T03:05:00.271Z,0.00
2023-03-05T03:06:00.282Z,0.00
2023-03-05T03:07:00.284Z,0.00
2023-03-05T03:08:00.241Z,0.00
2023-03-05T03:09:00.232Z,0.00
2023-03-05T03:10:00.217Z,0.00
2023-03-05T03:11:00.245Z,0.00
2023-03-05T03:12:00.223Z,0.00
2023-03-05T03:13:00.214Z,0.00
2023-03-05T03:14:00.184Z,0.00
2023-03-05T03:15:00.181Z,0.00
2023-03-05T03:16:00.190Z,0.00
2023-03-05T03:17:00.223Z,0.00
2023-03-05T03:18:00.150Z,0.00
2023-03-05T03:19:00.138Z,0.00
2023-03-05T03:20:00.167Z,0.00
2023-03-05T03:21:00.122Z,0.00
2023-03-05T03:22:00.109Z,0.00
2023-03-05T03:23:00.113Z,0.00
2023-03-05T03:24:00.152Z,0.00
2023-03-05T03:25:00.111Z,0.00
2023-03-05T03:26:00.125Z,0.00
2023-03-05T03:27:00.103Z,0.00
2023-03-05T03:28:00.054Z,0.00
2023-03-05T03:29:00.042Z,0.00
2023-03-05T03:30:00.098Z,0.00
2023-03-05T03:31:00.060Z,0.00
2023-03-05T03:32:00.076Z,0.00
2023-03-05T03:33:00.016Z,0.00
2023-03-05T03:34:00.038Z,0.00
2023-03-05T03:35:00.009Z,0.00
2023-03-05T03:36:00.012Z,0.00
2023-03-05T03:36:59.995Z,0.00
2023-03-05T03:37:59.961Z,0.00
2023-03-05T03:38:59.971Z,0.00
2023-03-05T03:39:59.937Z,0.00
2023-03-05T03:40:59.992Z,0.00
2023-03-05T03:41:59.936Z,0.00
2023-03-05T03:42:59.928Z,0.00
2023-03-05T03:43:59.931Z,0.00
2023-03-05T03:44:59.898Z,0.00
2023-03-05T03:45:59.949Z,0.00
2023-03-05T03:46:59.910Z,0.00
2023-03-05T03:47:59.860Z,0.00
2023-03-05T03:48:59.869Z,0.00
2023-03-05T03:49:59.848Z,0.00
2023-03-05T03:50:59.867Z,0.00
2023-03-05T03:51:59.824Z,0.00
2023-03-05T03:52:59.810Z,0.00
2023-03-05T03:53:59.819Z,0.00
2023-03-05T03:54:59.804Z,0.00
2023-03-05T03:55:59.816Z,0.00
2023-03-05T03:56:59.814Z,0.00
2023-03-05T03:57:59.796Z,0.00
2023-03-05T03:58:59.806Z,0.00
2023-03-05T03:59:59.749Z,0.00
2023-03-05T04:00:59.740Z,0.00
2023-03-05T04:01:59.742Z,0.00
2023-03-05T04:02:59.742Z,0.00
2023-03-05T04:03:59.746Z,0.00
2023-03-05T04:04:59.710Z,0.00
2023-03-05T04:05:59.691Z,0.00
2023-03-05T04:06:59.676Z,0.00
2023-03-05T04:07:59.664Z,0.00
2023-03-05T04:08:59.663Z,0.00
2023-03-05T04:09:59.647Z,0.00
2023-03-05T04:10:59.661Z,0.00
2023-03-05T04:11:59.654Z,0.00
2023-03-05T04:12:59.630Z,0.00
2023-03-05T04:13:59.600Z,0.00
2023-03-05T04:14:59.594Z,0.00
2023-03-05T04:15:59.622Z,0.00
2023-03-05T04:16:59.592Z,0.00
2023-03-05T04:17:59.571Z,0.00
2023-03-05T04:18:59.577Z,0.00
2023-03-05T04:19:59.591Z,0.00
2023-03-05T04:20:59.542Z,0.00
2023-03-05T04:21:59.551Z,0.00
2023-03-05T04:22:59.535Z,0.00
2023-03-05T04:23:59.540Z,0.00
2023-03-05T04:24:59.533Z,0.00
2023-03-05T04:25:59.484Z,0.00
2023-03-05T04:26:59.501Z,0.00
2023-03-05T04:27:59.492Z,0.00
2023-03-05T04:28:59.462Z,0.00
2023-03-05T04:29:59.440Z,0.00
2023-03-05T04:30:59.540Z,0.00
2023-03-05T04:31:59.483Z,0.00
2023-03-05T04:32:59.415Z,0.00
2023-03-05T04:33:59.423Z,0.00
2023-03-05T04:34:59.471Z,0.00
2023-03-05T04:35:59.473Z,0.00
2023-03-05T04:36:59.435Z,0.00
2023-03-05T04:37:59.392Z,0.00
2023-03-05T04:38:59.353Z,0.00
2023-03-05T04:39:59.342Z,0.00
2023-03-05T04:40:59.347Z,0.00
2023-03-05T04:41:59.341Z,0.00
2023-03-05T04:42:59.393Z,0.00
2023-03-05T04:43:59.327Z,0.00
2023-03-05T04:44:59.312Z,0.00
2023-03-05T04:45:59.310Z,0.00
2023-03-05T04:46:59.270Z,0.00
2023-03-05T04:47:59.317Z,0.00
2023-03-05T04:48:59.288Z,0.00
2023-03-05T04:49:59.250Z,0.00
2023-03-05T04:50:59.236Z,0.00
2023-03-05T04:51:59.250Z,0.00
2023-03-05T04:52:59.222Z,0.00
2023-03-05T04:53:59.251Z,0.00
2023-03-05T04:54:59.207Z,0.00
2023-03-05T04:55:59.204Z,0.00
2023-03-05T04:56:59.181Z,0.00
2023-03-05T04:57:59.243Z,0.00
2023-03-05T04:58:59.181Z,0.00
2023-03-05T04:59:59.160Z,0.00
2023-03-05T05:00:59.142Z,0.00
2023-03-05T05:01:59.204Z,0.00
2023-03-05T05:02:59.246Z,0.00
2023-03-05T05:03:59.132Z,0.00
2023-03-05T05:04:59.117Z,0.00
2023-03-05T05:05:59.082Z,0.00
2023-03-05T05:06:59.083Z,0.00
2023-03-05T05:07:59.065Z,0.00
2023-03-05T05:08:59.057Z,0.00
2023-03-05T05:09:59.043Z,0.00
2023-03-05T05:10:59.062Z,0.00
2023-03-05T05:11:59.041Z,0.00
2023-03-05T05:12:59.023Z,0.00
2023-03-05T05:13:59.007Z,0.00
2023-03-05T05:14:59.055Z,0.00
2023-03-05T05:15:59.035Z,0.00
2023-03-05T05:16:58.984Z,0.00
2023-03-05T05:17:58.974Z,0.00
2023-03-05T05:18:58.982Z,0.00
2023-03-05T05:19:59.001Z,0.00
2023-03-05T05:20:58.975Z,0.00
2023-03-05T05:21:58.962Z,0.00
2023-03-05T05:22:58.923Z,0.00
2023-03-05T05:23:58.940Z,0.00
2023-03-05T05:24:58.933Z,0.00
2023-03-05T05:25:58.895Z,0.00
2023-03-05T05:26:58.879Z,0.00
2023-03-05T05:27:58.902Z,0.00
2023-03-05T05:28:58.861Z,0.00
2023-03-05T05:29:58.870Z,0.00
2023-03-05T05:30:58.848Z,0.00
2023-03-05T05:31:58.852Z,0.00
2023-03-05T05:32:58.825Z,0.00
2023-03-05T05:33:58.838Z,0.00
2023-03-05T05:34:58.811Z,0.00
2023-03-05T05:35:58.853Z,0.00
2023-03-05T05:36:58.792Z,0.00
2023-03-05T05:37:58.813Z,0.00
2023-03-05T05:38:58.774Z,0.00
2023-03-05T05:39:58.790Z,0.00
2023-03-05T05:40:58.764Z,0.00
2023-03-05T05:41:58.759Z,0.00
2023-03-05T05:42:58.741Z,0.00
2023-03-05T05:43:58.744Z,0.00
2023-03-05T05:44:58.733Z,0.00
2023-03-05T05:45:58.856Z,0.00
2023-03-05T05:46:58.694Z,0.00
2023-03-05T05:47:58.688Z,0.00
2023-03-05T05:48:58.670Z,0.00
2023-03-05T05:49:58.716Z,0.00
2023-03-05T05:50:58.717Z,0.00
2023-03-05T05:51:58.660Z,0.00
2023-03-05T05:52:58.641Z,0.00
2023-03-05T05:53:58.679Z,0.00
2023-03-05T05:54:58.666Z,0.00
2023-03-05T05:55:58.642Z,0.00
2023-03-05T05:56:58.656Z,0.00
2023-03-05T05:57:58.628Z,0.00
2023-03-05T05:58:58.598Z,4.00
2023-03-05T05:59:58.594Z,4.00
2023-03-05T06:00:58.583Z,4.00
2023-03-05T06:01:58.618Z,0.00
2023-03-05T06:02:58.571Z,0.00
2023-03-05T06:03:58.549Z,4.00
2023-03-05T06:04:58.538Z,4.00
2023-03-05T06:05:58.509Z,4.00
2023-03-05T06:06:58.496Z,0.00
2023-03-05T06:07:58.520Z,4.00
2023-03-05T06:08:58.485Z,8.00
2023-03-05T06:09:58.470Z,4.00
2023-03-05T06:10:58.472Z,8.00
2023-03-05T06:11:58.458Z,4.00
2023-03-05T06:12:58.447Z,4.00
2023-03-05T06:13:58.465Z,8.00
2023-03-05T06:14:58.468Z,12.00
2023-03-05T06:15:58.448Z,12.00
2023-03-05T06:16:58.425Z,12.00
2023-03-05T06:17:58.421Z,12.00
2023-03-05T06:18:58.423Z,12.00
2023-03-05T06:19:58.404Z,12.00
2023-03-05T06:20:58.388Z,16.00
2023-03-05T06:21:58.412Z,16.00
2023-03-05T06:22:58.375Z,16.00
2023-03-05T06:23:58.342Z,20.00
2023-03-05T06:24:58.364Z,16.00
2023-03-05T06:25:58.341Z,20.00
2023-03-05T06:26:58.328Z,20.00
2023-03-05T06:27:58.324Z,16.00
2023-03-05T06:28:58.290Z,20.00
2023-03-05T06:29:58.312Z,24.00
2023-03-05T06:30:58.316Z,24.00
2023-03-05T06:31:58.320Z,20.00
2023-03-05T06:32:58.275Z,24.00
2023-03-05T06:33:58.257Z,20.00
2023-03-05T06:34:58.222Z,20.00
2023-03-05T06:35:58.263Z,20.00
2023-03-05T06:36:58.240Z,24.00
2023-03-05T06:37:58.241Z,36.00
2023-03-05T06:38:58.183Z,36.00
2023-03-05T06:39:58.185Z,36.00
2023-03-05T06:40:58.190Z,36.00
2023-03-05T06:41:58.178Z,44.00
2023-03-05T06:42:58.176Z,44.00
2023-03-05T06:43:58.140Z,48.00
2023-03-05T06:44:58.159Z,48.00
2023-03-05T06:45:58.180Z,48.00
2023-03-05T06:46:58.116Z,52.00
2023-03-05T06:47:58.098Z,56.00
2023-03-05T06:48:58.084Z,52.00
2023-03-05T06:49:58.070Z,44.00
2023-03-05T06:50:58.069Z,48.00
2023-03-05T06:51:58.062Z,52.00
2023-03-05T06:52:58.083Z,48.00
2023-03-05T06:53:58.059Z,52.00
2023-03-05T06:54:58.061Z,68.00
2023-03-05T06:55:58.015Z,80.00
2023-03-05T06:56:58.025Z,84.00
2023-03-05T06:57:58.009Z,96.00
2023-03-05T06:58:58.010Z,112.00
2023-03-05T06:59:57.988Z,124.00
2023-03-05T07:00:58.030Z,108.00
2023-03-05T07:01:58.018Z,108.00
2023-03-05T07:02:57.951Z,100.00
2023-03-05T07:03:57.968Z,104.00
2023-03-05T07:04:57.975Z,116.00
2023-03-05T07:05:57.941Z,116.00
2023-03-05T07:06:57.912Z,116.00
2023-03-05T07:07:57.937Z,124.00
2023-03-05T07:08:57.933Z,124.00
2023-03-05T07:09:57.881Z,128.00
2023-03-05T07:10:57.885Z,128.00
2023-03-05T07:11:57.883Z,132.00
2023-03-05T07:12:57.863Z,128.00
2023-03-05T07:13:57.877Z,128.00
2023-03-05T07:14:57.834Z,132.00
2023-03-05T07:15:57.925Z,140.00
2023-03-05T07:16:57.812Z,148.00
2023-03-05T07:17:57.796Z,136.00
2023-03-05T07:18:57.786Z,144.00
2023-03-05T07:19:57.783Z,168.00
2023-03-05T07:20:57.801Z,156.00
2023-03-05T07:21:57.799Z,156.00
2023-03-05T07:22:57.787Z,152.00
2023-03-05T07:23:57.766Z,156.00
2023-03-05T07:24:57.733Z,156.00
2023-03-05T07:25:57.729Z,160.00
2023-03-05T07:26:57.708Z,168.00
2023-03-05T07:27:57.710Z,176.00
2023-03-05T07:28:57.718Z,176.00
2023-03-05T07:29:57.696Z,180.00
2023-03-05T07:30:57.768Z,184.00
2023-03-05T07:31:57.681Z,188.00
2023-03-05T07:32:57.650Z,188.00
2023-03-05T07:33:57.660Z,192.00
2023-03-05T07:34:57.654Z,184.00
2023-03-05T07:35:57.644Z,184.00
2023-03-05T07:36:57.617Z,188.00
2023-03-05T07:37:57.605Z,196.00
2023-03-05T07:38:57.617Z,196.00
2023-03-05T07:39:57.607Z,204.00
2023-03-05T07:40:57.566Z,220.00
2023-03-05T07:41:57.575Z,248.00
2023-03-05T07:42:57.583Z,256.00
2023-03-05T07:43:57.567Z,288.00
2023-03-05T07:44:57.532Z,316.00
2023-03-05T07:45:57.529Z,356.00
2023-03-05T07:46:57.513Z,384.00
2023-03-05T07:47:57.496Z,372.00
2023-03-05T07:48:57.512Z,392.00
2023-03-05T07:49:57.478Z,408.00
2023-03-05T07:50:57.540Z,392.00
2023-03-05T07:51:57.458Z,412.00
2023-03-05T07:52:57.456Z,392.00
2023-03-05T07:53:57.447Z,436.00
2023-03-05T07:54:57.428Z,480.00
2023-03-05T07:55:57.420Z,500.00
2023-03-05T07:56:57.428Z,500.00
2023-03-05T07:57:57.398Z,504.00
2023-03-05T07:58:57.411Z,500.00
2023-03-05T07:59:57.440Z,552.00
2023-03-05T08:00:57.382Z,544.00
2023-03-05T08:01:57.363Z,512.00
2023-03-05T08:02:57.353Z,488.00
2023-03-05T08:03:57.403Z,500.00
2023-03-05T08:04:57.327Z,524.00
2023-03-05T08:05:57.360Z,580.00
2023-03-05T08:06:57.316Z,676.00
2023-03-05T08:07:57.308Z,708.00
2023-03-05T08:08:57.292Z,712.00
2023-03-05T08:09:57.296Z,652.00
2023-03-05T08:10:57.315Z,584.00
2023-03-05T08:11:57.258Z,624.00
2023-03-05T08:12:57.251Z,680.00
2023-03-05T08:13:57.269Z,644.00
2023-03-05T08:14:57.228Z,676.00
2023-03-05T08:15:57.287Z,792.00
2023-03-05T08:16:57.261Z,908.00
2023-03-05T08:17:57.264Z,1032.00
2023-03-05T08:18:57.222Z,1056.00
2023-03-05T08:19:57.181Z,1024.00
2023-03-05T08:20:57.171Z,916.00
2023-03-05T08:21:57.183Z,936.00
2023-03-05T08:22:57.166Z,1172.00
2023-03-05T08:23:57.147Z,1224.00
2023-03-05T08:24:57.143Z,1120.00
2023-03-05T08:25:57.144Z,1092.00
2023-03-05T08:26:57.120Z,1068.00
2023-03-05T08:27:57.113Z,1032.00
2023-03-05T08:28:57.108Z,940.00
2023-03-05T08:29:57.129Z,832.00
2023-03-05T08:30:57.104Z,920.00
2023-03-05T08:31:57.074Z,976.00
2023-03-05T08:32:57.087Z,1004.00
2023-03-05T08:33:57.046Z,1096.00
2023-03-05T08:34:57.040Z,1124.00
2023-03-05T08:35:57.046Z,1092.00
2023-03-05T08:36:57.015Z,1020.00
2023-03-05T08:37:57.004Z,968.00
2023-03-05T08:38:57.000Z,868.00
2023-03-05T08:39:56.999Z,784.00
2023-03-05T08:40:56.980Z,740.00
2023-03-05T08:41:56.974Z,704.00
2023-03-05T08:42:56.957Z,668.00
2023-03-05T08:43:56.953Z,656.00
2023-03-05T08:44:56.951Z,608.00
2023-03-05T08:45:56.927Z,620.00
2023-03-05T08:46:56.955Z,652.00
2023-03-05T08:47:56.910Z,640.00
2023-03-05T08:48:56.951Z,568.00
2023-03-05T08:49:56.936Z,524.00
2023-03-05T08:50:56.953Z,564.00
2023-03-05T08:51:56.880Z,568.00
2023-03-05T08:52:56.880Z,572.00
2023-03-05T08:53:56.884Z,544.00
2023-03-05T08:54:56.863Z,544.00
2023-03-05T08:55:56.862Z,556.00
2023-03-05T08:56:56.828Z,576.00
2023-03-05T08:57:56.832Z,452.00
2023-03-05T08:58:56.833Z,448.00
2023-03-05T08:59:56.839Z,488.00
2023-03-05T09:00:56.814Z,492.00
2023-03-05T09:01:56.907Z,508.00
2023-03-05T09:02:56.842Z,596.00
2023-03-05T09:03:56.764Z,628.00
2023-03-05T09:04:56.777Z,600.00
2023-03-05T09:05:56.748Z,588.00
2023-03-05T09:06:56.736Z,536.00
2023-03-05T09:07:56.744Z,420.00
2023-03-05T09:08:56.734Z,440.00
2023-03-05T09:09:56.726Z,436.00
2023-03-05T09:10:56.703Z,432.00
2023-03-05T09:11:56.686Z,428.00
2023-03-05T09:12:56.670Z,404.00
2023-03-05T09:13:56.669Z,456.00
2023-03-05T09:14:56.681Z,464.00
2023-03-05T09:15:56.713Z,428.00
2023-03-05T09:16:56.659Z,504.00
2023-03-05T09:17:56.635Z,504.00
2023-03-05T09:18:56.636Z,472.00
2023-03-05T09:19:56.611Z,564.00
2023-03-05T09:20:56.633Z,572.00
2023-03-05T09:21:57.151Z,568.00
2023-03-05T09:22:56.597Z,560.00
2023-03-05T09:23:56.570Z,532.00
2023-03-05T09:24:56.613Z,576.00
2023-03-05T09:25:56.565Z,652.00
2023-03-05T09:26:56.548Z,716.00
2023-03-05T09:27:56.554Z,688.00
2023-03-05T09:28:56.564Z,688.00
2023-03-05T09:29:56.532Z,660.00
2023-03-05T09:30:56.588Z,600.00
2023-03-05T09:31:56.590Z,604.00
2023-03-05T09:32:56.500Z,672.00
2023-03-05T09:33:56.515Z,704.00
2023-03-05T09:34:56.507Z,644.00
2023-03-05T09:35:56.512Z,668.00
2023-03-05T09:36:56.489Z,720.00
2023-03-05T09:37:56.451Z,748.00
2023-03-05T09:38:56.437Z,740.00
2023-03-05T09:39:56.425Z,780.00
2023-03-05T09:40:56.447Z,772.00
2023-03-05T09:41:56.422Z,680.00
2023-03-05T09:42:56.390Z,656.00
2023-03-05T09:43:56.396Z,704.00
2023-03-05T09:44:56.422Z,688.00
2023-03-05T09:45:56.432Z,620.00
2023-03-05T09:46:56.407Z,692.00
2023-03-05T09:47:56.341Z,652.00
2023-03-05T09:48:56.377Z,640.00
2023-03-05T09:49:56.362Z,740.00
2023-03-05T09:50:56.312Z,776.00
2023-03-05T09:51:56.345Z,796.00
2023-03-05T09:52:56.286Z,788.00
2023-03-05T09:53:56.363Z,732.00
2023-03-05T09:54:56.338Z,696.00
2023-03-05T09:55:56.268Z,616.00
2023-03-05T09:56:56.253Z,516.00
2023-03-05T09:57:56.292Z,448.00
2023-03-05T09:58:56.364Z,484.00
2023-03-05T09:59:56.226Z,644.00
2023-03-05T10:00:56.229Z,784.00
2023-03-05T10:01:56.229Z,784.00
2023-03-05T10:02:56.236Z,628.00
2023-03-05T10:03:56.205Z,596.00
2023-03-05T10:04:56.186Z,576.00
2023-03-05T10:05:56.179Z,600.00
2023-03-05T10:06:56.177Z,624.00
2023-03-05T10:07:56.177Z,472.00
2023-03-05T10:08:56.174Z,396.00
2023-03-05T10:09:56.136Z,412.00
2023-03-05T10:10:56.129Z,384.00
2023-03-05T10:11:56.113Z,352.00
2023-03-05T10:12:56.131Z,348.00
2023-03-05T10:13:56.106Z,412.00
2023-03-05T10:14:56.096Z,440.00
2023-03-05T10:15:56.138Z,448.00
2023-03-05T10:16:56.164Z,500.00
2023-03-05T10:17:56.061Z,496.00
2023-03-05T10:18:56.076Z,516.00
2023-03-05T10:19:56.092Z,560.00
2023-03-05T10:20:56.060Z,628.00
2023-03-05T10:21:56.030Z,720.00
2023-03-05T10:22:56.056Z,876.00
2023-03-05T10:23:56.021Z,848.00
2023-03-05T10:24:56.036Z,908.00
2023-03-05T10:25:56.013Z,912.00
2023-03-05T10:26:56.038Z,1020.00
2023-03-05T10:27:55.965Z,1068.00
2023-03-05T10:28:55.980Z,1224.00
2023-03-05T10:29:55.953Z,1420.00
2023-03-05T10:30:55.978Z,1592.00
2023-03-05T10:31:55.942Z,1780.00
2023-03-05T10:32:55.939Z,2108.00
2023-03-05T10:33:55.909Z,2496.00
2023-03-05T10:34:55.898Z,2432.00
2023-03-05T10:35:55.923Z,2092.00
2023-03-05T10:36:58.154Z,1936.00
2023-03-05T10:37:55.875Z,1852.00
2023-03-05T10:38:55.863Z,1768.00
2023-03-05T10:39:55.919Z,1640.00
2023-03-05T10:40:55.843Z,1324.00
2023-03-05T10:41:55.859Z,1124.00
2023-03-05T10:42:55.830Z,1064.00
2023-03-05T10:43:55.829Z,892.00
2023-03-05T10:44:55.850Z,624.00
2023-03-05T10:45:55.846Z,532.00
2023-03-05T10:46:56.067Z,476.00
2023-03-05T10:47:55.774Z,376.00
2023-03-05T10:48:55.774Z,292.00
2023-03-05T10:49:55.752Z,272.00
2023-03-05T10:50:55.769Z,252.00
2023-03-05T10:51:55.764Z,208.00
2023-03-05T10:52:55.774Z,176.00
2023-03-05T10:53:55.757Z,196.00
2023-03-05T10:54:55.741Z,232.00
2023-03-05T10:55:55.701Z,276.00
2023-03-05T10:56:55.776Z,268.00
2023-03-05T10:57:55.734Z,356.00
2023-03-05T10:58:55.714Z,436.00
2023-03-05T10:59:55.671Z,428.00
2023-03-05T11:00:55.713Z,388.00
2023-03-05T11:01:55.687Z,416.00
2023-03-05T11:02:55.661Z,368.00
2023-03-05T11:03:55.647Z,360.00
2023-03-05T11:04:55.680Z,400.00
2023-03-05T11:05:56.669Z,412.00
2023-03-05T11:08:29.111Z,388.00
2023-03-05T11:09:29.104Z,412.00
2023-03-05T11:11:23.212Z,424.00
2023-03-05T11:12:23.237Z,428.00
2023-03-05T11:14:18.287Z,436.00
2023-03-05T11:15:18.263Z,416.00
2023-03-05T11:17:13.343Z,416.00
2023-03-05T11:18:13.321Z,396.00
2023-03-05T11:20:08.423Z,472.00
2023-03-05T11:21:08.416Z,572.00
2023-03-05T11:23:03.547Z,476.00
2023-03-05T11:24:03.527Z,544.00
2023-03-05T11:25:58.751Z,608.00
2023-03-05T11:26:58.736Z,600.00
2023-03-05T11:28:53.844Z,512.00
2023-03-05T11:29:53.858Z,536.00
2023-03-05T11:31:48.599Z,500.00
2023-03-05T11:32:48.586Z,464.00
2023-03-05T11:34:43.667Z,368.00
2023-03-05T11:35:43.665Z,376.00
2023-03-05T11:37:38.006Z,372.00
2023-03-05T11:38:37.989Z,448.00
2023-03-05T11:41:24.829Z,372.00
2023-03-05T11:42:24.790Z,396.00
2023-03-05T11:44:19.946Z,556.00
2023-03-05T11:45:19.915Z,540.00
2023-03-05T11:47:15.043Z,544.00
2023-03-05T11:48:15.000Z,520.00
2023-03-05T11:50:10.204Z,556.00
2023-03-05T11:51:10.195Z,556.00
2023-03-05T11:53:05.297Z,440.00
2023-03-05T11:54:05.479Z,392.00
2023-03-05T11:56:00.474Z,480.00
2023-03-05T11:57:00.307Z,384.00
2023-03-05T11:58:55.414Z,436.00
2023-03-05T11:59:55.369Z,428.00
2023-03-05T12:01:50.236Z,360.00
2023-03-05T12:02:50.262Z,280.00
2023-03-05T12:04:44.327Z,216.00
2023-03-05T12:05:44.320Z,212.00
2023-03-05T12:07:39.646Z,176.00
2023-03-05T12:08:39.589Z,180.00
2023-03-05T12:10:34.773Z,296.00
2023-03-05T12:11:34.752Z,280.00
2023-03-05T12:13:28.835Z,376.00
2023-03-05T12:14:28.829Z,528.00
2023-03-05T12:16:22.967Z,860.00
2023-03-05T12:17:22.889Z,860.00
2023-03-05T12:19:18.516Z,852.00
2023-03-05T12:20:17.960Z,936.00
2023-03-05T12:22:12.188Z,1088.00
2023-03-05T12:23:12.164Z,1248.00
2023-03-05T12:25:06.374Z,1100.00
2023-03-05T12:26:06.300Z,1228.00
2023-03-05T12:28:00.434Z,1564.00
2023-03-05T12:29:00.412Z,1604.00
2023-03-05T12:30:54.154Z,1316.00
2023-03-05T12:31:54.141Z,1072.00
2023-03-05T12:33:50.260Z,1000.00
2023-03-05T12:34:50.360Z,1044.00
2023-03-05T12:36:45.014Z,972.00
2023-03-05T12:37:45.291Z,836.00
2023-03-05T12:39:41.724Z,680.00
2023-03-05T12:40:41.444Z,776.00
2023-03-05T12:42:36.290Z,684.00
2023-03-05T12:43:36.326Z,764.00
2023-03-05T12:45:31.625Z,792.00
2023-03-05T12:46:31.689Z,920.00
2023-03-05T12:48:27.413Z,940.00
2023-03-05T12:49:27.392Z,1048.00
2023-03-05T12:51:22.477Z,996.00
2023-03-05T12:52:22.463Z,1080.00
2023-03-05T12:54:19.085Z,1044.00
2023-03-05T12:55:17.605Z,924.00
2023-03-05T12:57:13.761Z,880.00
2023-03-05T12:58:13.749Z,900.00
2023-03-05T13:00:08.974Z,824.00
2023-03-05T13:01:08.886Z,852.00
2023-03-05T13:03:04.939Z,920.00
2023-03-05T13:04:05.048Z,928.00
2023-03-05T13:06:00.988Z,1040.00
2023-03-05T13:07:01.013Z,1088.00
2023-03-05T13:08:56.072Z,1100.00
2023-03-05T13:09:56.139Z,1132.00
2023-03-05T13:11:51.358Z,916.00
2023-03-05T13:12:51.227Z,856.00
2023-03-05T13:14:46.508Z,756.00
2023-03-05T13:15:46.082Z,596.00
2023-03-05T13:16:46.506Z,636.00
2023-03-05T13:17:46.454Z,696.00
2023-03-05T13:18:45.986Z,600.00
2023-03-05T13:19:46.056Z,564.00
2023-03-05T13:20:45.957Z,616.00
2023-03-05T13:21:45.943Z,512.00
2023-03-05T13:22:45.951Z,412.00
2023-03-05T13:23:46.006Z,396.00
2023-03-05T13:24:45.923Z,440.00
2023-03-05T13:25:45.960Z,388.00
2023-03-05T13:26:45.939Z,336.00
2023-03-05T13:27:45.902Z,372.00
2023-03-05T13:28:45.888Z,488.00
2023-03-05T13:29:45.881Z,476.00
2023-03-05T13:30:45.903Z,440.00
2023-03-05T13:31:45.978Z,396.00
2023-03-05T13:32:45.851Z,524.00